sensor_id;sensor_type;location;lat;lon;timestamp;pressure;altitude;pressure_sealevel;temperature
68446;BMP280;35789;48.414;12.768;2023-06-26T00:00:00;97040.0;;;
68446;BMP280;35789;48.414;12.768;2023-06-26T00:05:00;97030.0;;;
68446;BMP280;35789;48.414;12.768;2023-06-26T00:10:01;97030.0;;;
68446;BMP280;35789;48.414;12.768;2023-06-26T00:15:01;97030.0;;;
68446;BMP280;35789;48.414;12.768;2023-06-26T00:20:00;97020.0;;;
68446;BMP280;35789;48.414;12.768;2023-06-26T00:25:00;97020.0;;;
68446;BMP280;35789;48.414;12.768;2023-06-26T00:30:00;97020.0;;;
68446;BMP280;35789;48.414;12.768;2023-06-26T00:35:00;97020.0;;;
68446;BMP280;35789;48.414;12.768;2023-06-26T00:40:00;97030.0;;;
68446;BMP280;35789;48.414;12.768;2023-06-26T00:45:00;97030.0;;;
68446;BMP280;35789;48.414;12.768;2023-06-26T00:50:01;97030.0;;;
68446;BMP280;35789;48.414;12.768;2023-06-26T00:55:01;97030.0;;;
68446;BMP280;35789;48.414;12.768;2023-06-26T01:00:01;97030.0;;;
68446;BMP280;35789;48.414;12.768;2023-06-26T01:05:02;97030.0;;;
68446;BMP280;35789;48.414;12.768;2023-06-26T01:10:00;97030.0;;;
68446;BMP280;35789;48.414;12.768;2023-06-26T01:15:00;97030.0;;;
68446;BMP280;35789;48.414;12.768;2023-06-26T01:20:03;97030.0;;;
68446;BMP280;35789;48.414;12.768;2023-06-26T01:25:13;97030.0;;;
68446;BMP280;35789;48.414;12.768;2023-06-26T01:30:03;97040.0;;;
68446;BMP280;35789;48.414;12.768;2023-06-26T01:35:02;97030.0;;;
68446;BMP280;35789;48.414;12.768;2023-06-26T01:40:00;97030.0;;;
68446;BMP280;35789;48.414;12.768;2023-06-26T01:45:07;97030.0;;;
68446;BMP280;35789;48.414;12.768;2023-06-26T01:50:10;97020.0;;;
68446;BMP280;35789;48.414;12.768;2023-06-26T01:55:07;97020.0;;;
68446;BMP280;35789;48.414;12.768;2023-06-26T02:00:02;97010.0;;;
68446;BMP280;35789;48.414;12.768;2023-06-26T02:05:00;97010.0;;;
68446;BMP280;35789;48.414;12.768;2023-06-26T02:10:00;97010.0;;;
68446;BMP280;35789;48.414;12.768;2023-06-26T02:15:00;97020.0;;;
68446;BMP280;35789;48.414;12.768;2023-06-26T02:20:01;97020.0;;;
68446;BMP280;35789;48.414;12.768;2023-06-26T02:25:00;97030.0;;;
68446;BMP280;35789;48.414;12.768;2023-06-26T02:30:00;97030.0;;;
68446;BMP280;35789;48.414;12.768;2023-06-26T02:35:00;97030.0;;;
68446;BMP280;35789;48.414;12.768;2023-06-26T02:40:00;97030.0;;;
68446;BMP280;35789;48.414;12.768;2023-06-26T02:45:00;97030.0;;;
68446;BMP280;35789;48.414;12.768;2023-06-26T02:50:00;97030.0;;;
68446;BMP280;35789;48.414;12.768;2023-06-26T02:55:00;97030.0;;;
68446;BMP280;35789;48.414;12.768;2023-06-26T03:00:00;97030.0;;;
68446;BMP280;35789;48.414;12.768;2023-06-26T03:05:00;97040.0;;;
68446;BMP280;35789;48.414;12.768;2023-06-26T03:10:00;97040.0;;;
68446;BMP280;35789;48.414;12.768;2023-06-26T03:15:00;97040.0;;;
68446;BMP280;35789;48.414;12.768;2023-06-26T03:20:00;97050.0;;;
68446;BMP280;35789;48.414;12.768;2023-06-26T03:25:02;97040.0;;;
68446;BMP280;35789;48.414;12.768;2023-06-26T03:30:00;97040.0;;;
68446;BMP280;35789;48.414;12.768;2023-06-26T03:35:00;97040.0;;;
68446;BMP280;35789;48.414;12.768;2023-06-26T03:40:00;97030.0;;;
68446;BMP280;35789;48.414;12.768;2023-06-26T03:45:00;97040.0;;;
68446;BMP280;35789;48.414;12.768;2023-06-26T03:50:00;97040.0;;;
68446;BMP280;35789;48.414;12.768;2023-06-26T03:55:00;97040.0;;;
68446;BMP280;35789;48.414;12.768;2023-06-26T04:00:01;97040.0;;;
68446;BMP280;35789;48.414;12.768;2023-06-26T04:05:00;97050.0;;;
68446;BMP280;35789;48.414;12.768;2023-06-26T04:10:01;97050.0;;;
68446;BMP280;35789;48.414;12.768;2023-06-26T04:15:00;97050.0;;;
68446;BMP280;35789;48.414;12.768;2023-06-26T04:20:00;97050.0;;;
68446;BMP280;35789;48.414;12.768;2023-06-26T04:25:03;97040.0;;;
68446;BMP280;35789;48.414;12.768;2023-06-26T04:30:00;97040.0;;;
68446;BMP280;35789;48.414;12.768;2023-06-26T04:35:00;97040.0;;;
68446;BMP280;35789;48.414;12.768;2023-06-26T04:40:00;97040.0;;;
68446;BMP280;35789;48.414;12.768;2023-06-26T04:45:00;97040.0;;;
68446;BMP280;35789;48.414;12.768;2023-06-26T04:50:00;97040.0;;;
68446;BMP280;35789;48.414;12.768;2023-06-26T04:55:00;97040.0;;;
68446;BMP280;35789;48.414;12.768;2023-06-26T05:00:00;97040.0;;;
68446;BMP280;35789;48.414;12.768;2023-06-26T05:05:00;97040.0;;;
68446;BMP280;35789;48.414;12.768;2023-06-26T05:10:00;97050.0;;;
68446;BMP280;35789;48.414;12.768;2023-06-26T05:15:00;97040.0;;;
68446;BMP280;35789;48.414;12.768;2023-06-26T05:20:00;97040.0;;;
68446;BMP280;35789;48.414;12.768;2023-06-26T05:25:03;97030.0;;;
68446;BMP280;35789;48.414;12.768;2023-06-26T05:30:01;97030.0;;;
68446;BMP280;35789;48.414;12.768;2023-06-26T05:35:02;97030.0;;;
68446;BMP280;35789;48.414;12.768;2023-06-26T05:40:01;97030.0;;;
68446;BMP280;35789;48.414;12.768;2023-06-26T05:45:00;97030.0;;;
68446;BMP280;35789;48.414;12.768;2023-06-26T05:50:01;97030.0;;;
68446;BMP280;35789;48.414;12.768;2023-06-26T05:55:01;97030.0;;;
68446;BMP280;35789;48.414;12.768;2023-06-26T06:00:01;97030.0;;;
68446;BMP280;35789;48.414;12.768;2023-06-26T06:05:00;97030.0;;;
68446;BMP280;35789;48.414;12.768;2023-06-26T06:10:02;97030.0;;;
68446;BMP280;35789;48.414;12.768;2023-06-26T06:15:00;97020.0;;;
68446;BMP280;35789;48.414;12.768;2023-06-26T06:20:00;97030.0;;;
68446;BMP280;35789;48.414;12.768;2023-06-26T06:25:00;97020.0;;;
68446;BMP280;35789;48.414;12.768;2023-06-26T06:30:00;97020.0;;;
68446;BMP280;35789;48.414;12.768;2023-06-26T06:35:00;97020.0;;;
68446;BMP280;35789;48.414;12.768;2023-06-26T06:40:00;97010.0;;;
68446;BMP280;35789;48.414;12.768;2023-06-26T06:45:02;97010.0;;;
68446;BMP280;35789;48.414;12.768;2023-06-26T06:50:01;97010.0;;;
68446;BMP280;35789;48.414;12.768;2023-06-26T06:55:00;97010.0;;;
68446;BMP280;35789;48.414;12.768;2023-06-26T07:00:00;97000.0;;;
68446;BMP280;35789;48.414;12.768;2023-06-26T07:05:00;97000.0;;;
68446;BMP280;35789;48.414;12.768;2023-06-26T07:10:03;97000.0;;;
68446;BMP280;35789;48.414;12.768;2023-06-26T07:15:01;97000.0;;;
68446;BMP280;35789;48.414;12.768;2023-06-26T07:20:02;97000.0;;;
68446;BMP280;35789;48.414;12.768;2023-06-26T07:25:00;97000.0;;;
68446;BMP280;35789;48.414;12.768;2023-06-26T07:30:00;96990.0;;;
68446;BMP280;35789;48.414;12.768;2023-06-26T07:35:01;96990.0;;;
68446;BMP280;35789;48.414;12.768;2023-06-26T07:40:00;96990.0;;;
68446;BMP280;35789;48.414;12.768;2023-06-26T07:45:00;96990.0;;;
68446;BMP280;35789;48.414;12.768;2023-06-26T07:50:00;96990.0;;;
68446;BMP280;35789;48.414;12.768;2023-06-26T07:55:00;96990.0;;;
68446;BMP280;35789;48.414;12.768;2023-06-26T08:00:00;97000.0;;;
68446;BMP280;35789;48.414;12.768;2023-06-26T08:05:00;96990.0;;;
68446;BMP280;35789;48.414;12.768;2023-06-26T08:10:00;96990.0;;;
68446;BMP280;35789;48.414;12.768;2023-06-26T08:15:00;96990.0;;;
68446;BMP280;35789;48.414;12.768;2023-06-26T08:20:00;96980.0;;;
68446;BMP280;35789;48.414;12.768;2023-06-26T08:25:02;96970.0;;;
68446;BMP280;35789;48.414;12.768;2023-06-26T08:30:00;96970.0;;;
68446;BMP280;35789;48.414;12.768;2023-06-26T08:35:00;96960.0;;;
68446;BMP280;35789;48.414;12.768;2023-06-26T08:40:00;96960.0;;;
68446;BMP280;35789;48.414;12.768;2023-06-26T08:45:00;96960.0;;;
68446;BMP280;35789;48.414;12.768;2023-06-26T08:50:08;96960.0;;;
68446;BMP280;35789;48.414;12.768;2023-06-26T08:55:02;96960.0;;;
68446;BMP280;35789;48.414;12.768;2023-06-26T09:00:00;96950.0;;;
68446;BMP280;35789;48.414;12.768;2023-06-26T09:05:02;96960.0;;;
68446;BMP280;35789;48.414;12.768;2023-06-26T09:10:00;96950.0;;;
68446;BMP280;35789;48.414;12.768;2023-06-26T09:15:01;96940.0;;;
68446;BMP280;35789;48.414;12.768;2023-06-26T09:20:00;96940.0;;;
68446;BMP280;35789;48.414;12.768;2023-06-26T09:25:00;96930.0;;;
68446;BMP280;35789;48.414;12.768;2023-06-26T09:30:02;96930.0;;;
68446;BMP280;35789;48.414;12.768;2023-06-26T09:35:02;96920.0;;;
68446;BMP280;35789;48.414;12.768;2023-06-26T09:40:00;96920.0;;;
68446;BMP280;35789;48.414;12.768;2023-06-26T09:45:02;96920.0;;;
68446;BMP280;35789;48.414;12.768;2023-06-26T09:50:03;96920.0;;;
68446;BMP280;35789;48.414;12.768;2023-06-26T09:55:08;96920.0;;;
68446;BMP280;35789;48.414;12.768;2023-06-26T10:00:02;96910.0;;;
68446;BMP280;35789;48.414;12.768;2023-06-26T10:05:00;96910.0;;;
68446;BMP280;35789;48.414;12.768;2023-06-26T10:10:02;96900.0;;;
68446;BMP280;35789;48.414;12.768;2023-06-26T10:15:03;96900.0;;;
68446;BMP280;35789;48.414;12.768;2023-06-26T10:20:03;96890.0;;;
68446;BMP280;35789;48.414;12.768;2023-06-26T10:25:01;96880.0;;;
68446;BMP280;35789;48.414;12.768;2023-06-26T10:30:06;96880.0;;;
68446;BMP280;35789;48.414;12.768;2023-06-26T10:35:01;96870.0;;;
68446;BMP280;35789;48.414;12.768;2023-06-26T10:40:00;96870.0;;;
68446;BMP280;35789;48.414;12.768;2023-06-26T10:45:10;96870.0;;;
68446;BMP280;35789;48.414;12.768;2023-06-26T10:50:18;96860.0;;;
68446;BMP280;35789;48.414;12.768;2023-06-26T10:55:00;96860.0;;;
68446;BMP280;35789;48.414;12.768;2023-06-26T11:00:08;96860.0;;;
68446;BMP280;35789;48.414;12.768;2023-06-26T11:05:01;96840.0;;;
68446;BMP280;35789;48.414;12.768;2023-06-26T11:10:07;96840.0;;;
68446;BMP280;35789;48.414;12.768;2023-06-26T11:15:01;96830.0;;;
68446;BMP280;35789;48.414;12.768;2023-06-26T11:20:00;96820.0;;;
68446;BMP280;35789;48.414;12.768;2023-06-26T11:25:01;96830.0;;;
68446;BMP280;35789;48.414;12.768;2023-06-26T11:30:00;96820.0;;;
68446;BMP280;35789;48.414;12.768;2023-06-26T11:35:00;96820.0;;;
68446;BMP280;35789;48.414;12.768;2023-06-26T11:40:18;96820.0;;;
68446;BMP280;35789;48.414;12.768;2023-06-26T11:45:01;96810.0;;;
68446;BMP280;35789;48.414;12.768;2023-06-26T11:50:05;96810.0;;;
68446;BMP280;35789;48.414;12.768;2023-06-26T11:55:00;96810.0;;;
68446;BMP280;35789;48.414;12.768;2023-06-26T12:00:11;96800.0;;;
68446;BMP280;35789;48.414;12.768;2023-06-26T12:05:01;96790.0;;;
68446;BMP280;35789;48.414;12.768;2023-06-26T12:10:01;96800.0;;;
68446;BMP280;35789;48.414;12.768;2023-06-26T12:15:01;96780.0;;;
68446;BMP280;35789;48.414;12.768;2023-06-26T12:20:00;96790.0;;;
68446;BMP280;35789;48.414;12.768;2023-06-26T12:25:01;96770.0;;;
68446;BMP280;35789;48.414;12.768;2023-06-26T12:30:04;96770.0;;;
68446;BMP280;35789;48.414;12.768;2023-06-26T12:35:00;96770.0;;;
68446;BMP280;35789;48.414;12.768;2023-06-26T12:40:00;96770.0;;;
68446;BMP280;35789;48.414;12.768;2023-06-26T12:45:11;96760.0;;;
68446;BMP280;35789;48.414;12.768;2023-06-26T12:50:06;96760.0;;;
68446;BMP280;35789;48.414;12.768;2023-06-26T12:55:01;96750.0;;;
68446;BMP280;35789;48.414;12.768;2023-06-26T13:00:00;96740.0;;;
68446;BMP280;35789;48.414;12.768;2023-06-26T13:05:00;96740.0;;;
68446;BMP280;35789;48.414;12.768;2023-06-26T13:10:00;96740.0;;;
68446;BMP280;35789;48.414;12.768;2023-06-26T13:15:00;96750.0;;;
68446;BMP280;35789;48.414;12.768;2023-06-26T13:20:00;96740.0;;;
68446;BMP280;35789;48.414;12.768;2023-06-26T13:25:00;96730.0;;;
68446;BMP280;35789;48.414;12.768;2023-06-26T13:30:00;96730.0;;;
68446;BMP280;35789;48.414;12.768;2023-06-26T13:35:00;96720.0;;;
68446;BMP280;35789;48.414;12.768;2023-06-26T13:40:00;96720.0;;;
68446;BMP280;35789;48.414;12.768;2023-06-26T13:45:00;96720.0;;;
68446;BMP280;35789;48.414;12.768;2023-06-26T13:50:00;96710.0;;;
68446;BMP280;35789;48.414;12.768;2023-06-26T13:55:00;96700.0;;;
68446;BMP280;35789;48.414;12.768;2023-06-26T14:00:00;96700.0;;;
68446;BMP280;35789;48.414;12.768;2023-06-26T14:05:00;96700.0;;;
68446;BMP280;35789;48.414;12.768;2023-06-26T14:10:00;96700.0;;;
68446;BMP280;35789;48.414;12.768;2023-06-26T14:15:00;96680.0;;;
68446;BMP280;35789;48.414;12.768;2023-06-26T14:20:00;96690.0;;;
68446;BMP280;35789;48.414;12.768;2023-06-26T14:25:01;96680.0;;;
68446;BMP280;35789;48.414;12.768;2023-06-26T14:30:00;96680.0;;;
68446;BMP280;35789;48.414;12.768;2023-06-26T14:35:01;96690.0;;;
68446;BMP280;35789;48.414;12.768;2023-06-26T14:40:00;96680.0;;;
68446;BMP280;35789;48.414;12.768;2023-06-26T14:45:00;96680.0;;;
68446;BMP280;35789;48.414;12.768;2023-06-26T14:50:00;96670.0;;;
68446;BMP280;35789;48.414;12.768;2023-06-26T14:55:00;96670.0;;;
68446;BMP280;35789;48.414;12.768;2023-06-26T15:00:00;96670.0;;;
68446;BMP280;35789;48.414;12.768;2023-06-26T15:05:00;96670.0;;;
68446;BMP280;35789;48.414;12.768;2023-06-26T15:10:00;96680.0;;;
68446;BMP280;35789;48.414;12.768;2023-06-26T15:15:00;96670.0;;;
68446;BMP280;35789;48.414;12.768;2023-06-26T15:20:01;96660.0;;;
68446;BMP280;35789;48.414;12.768;2023-06-26T15:25:00;96660.0;;;
68446;BMP280;35789;48.414;12.768;2023-06-26T15:30:00;96650.0;;;
68446;BMP280;35789;48.414;12.768;2023-06-26T15:35:00;96640.0;;;
68446;BMP280;35789;48.414;12.768;2023-06-26T15:40:00;96630.0;;;
68446;BMP280;35789;48.414;12.768;2023-06-26T15:45:00;96630.0;;;
68446;BMP280;35789;48.414;12.768;2023-06-26T15:50:00;96620.0;;;
68446;BMP280;35789;48.414;12.768;2023-06-26T15:55:00;96630.0;;;
68446;BMP280;35789;48.414;12.768;2023-06-26T16:00:01;96620.0;;;
68446;BMP280;35789;48.414;12.768;2023-06-26T16:05:00;96610.0;;;
68446;BMP280;35789;48.414;12.768;2023-06-26T16:10:00;96600.0;;;
68446;BMP280;35789;48.414;12.768;2023-06-26T16:15:00;96600.0;;;
68446;BMP280;35789;48.414;12.768;2023-06-26T16:20:00;96590.0;;;
68446;BMP280;35789;48.414;12.768;2023-06-26T16:25:00;96590.0;;;
68446;BMP280;35789;48.414;12.768;2023-06-26T16:30:00;96580.0;;;
68446;BMP280;35789;48.414;12.768;2023-06-26T16:35:00;96570.0;;;
68446;BMP280;35789;48.414;12.768;2023-06-26T16:40:00;96580.0;;;
68446;BMP280;35789;48.414;12.768;2023-06-26T16:45:00;96580.0;;;
68446;BMP280;35789;48.414;12.768;2023-06-26T16:50:00;96570.0;;;
68446;BMP280;35789;48.414;12.768;2023-06-26T16:55:00;96580.0;;;
68446;BMP280;35789;48.414;12.768;2023-06-26T17:00:01;96580.0;;;
68446;BMP280;35789;48.414;12.768;2023-06-26T17:05:00;96570.0;;;
68446;BMP280;35789;48.414;12.768;2023-06-26T17:10:00;96570.0;;;
68446;BMP280;35789;48.414;12.768;2023-06-26T17:15:00;96580.0;;;
68446;BMP280;35789;48.414;12.768;2023-06-26T17:20:00;96570.0;;;
68446;BMP280;35789;48.414;12.768;2023-06-26T17:25:00;96570.0;;;
68446;BMP280;35789;48.414;12.768;2023-06-26T17:30:02;96580.0;;;
68446;BMP280;35789;48.414;12.768;2023-06-26T17:35:01;96580.0;;;
68446;BMP280;35789;48.414;12.768;2023-06-26T17:40:01;96590.0;;;
68446;BMP280;35789;48.414;12.768;2023-06-26T17:45:00;96580.0;;;
68446;BMP280;35789;48.414;12.768;2023-06-26T17:50:00;96570.0;;;
68446;BMP280;35789;48.414;12.768;2023-06-26T17:55:00;96580.0;;;
68446;BMP280;35789;48.414;12.768;2023-06-26T18:00:00;96580.0;;;
68446;BMP280;35789;48.414;12.768;2023-06-26T18:05:00;96600.0;;;
68446;BMP280;35789;48.414;12.768;2023-06-26T18:10:00;96610.0;;;
68446;BMP280;35789;48.414;12.768;2023-06-26T18:15:01;96620.0;;;
68446;BMP280;35789;48.414;12.768;2023-06-26T18:20:00;96620.0;;;
68446;BMP280;35789;48.414;12.768;2023-06-26T18:25:01;96620.0;;;
68446;BMP280;35789;48.414;12.768;2023-06-26T18:30:01;96620.0;;;
68446;BMP280;35789;48.414;12.768;2023-06-26T18:35:00;96630.0;;;
68446;BMP280;35789;48.414;12.768;2023-06-26T18:40:00;96640.0;;;
68446;BMP280;35789;48.414;12.768;2023-06-26T18:45:00;96650.0;;;
68446;BMP280;35789;48.414;12.768;2023-06-26T18:50:00;96650.0;;;
68446;BMP280;35789;48.414;12.768;2023-06-26T18:55:00;96660.0;;;
68446;BMP280;35789;48.414;12.768;2023-06-26T19:00:00;96700.0;;;
68446;BMP280;35789;48.414;12.768;2023-06-26T19:05:00;96710.0;;;
68446;BMP280;35789;48.414;12.768;2023-06-26T19:10:00;96720.0;;;
68446;BMP280;35789;48.414;12.768;2023-06-26T19:15:01;96740.0;;;
68446;BMP280;35789;48.414;12.768;2023-06-26T19:20:00;96730.0;;;
68446;BMP280;35789;48.414;12.768;2023-06-26T19:25:01;96740.0;;;
68446;BMP280;35789;48.414;12.768;2023-06-26T19:30:00;96750.0;;;
68446;BMP280;35789;48.414;12.768;2023-06-26T19:35:00;96760.0;;;
68446;BMP280;35789;48.414;12.768;2023-06-26T19:40:00;96760.0;;;
68446;BMP280;35789;48.414;12.768;2023-06-26T19:45:00;96750.0;;;
68446;BMP280;35789;48.414;12.768;2023-06-26T19:50:01;96750.0;;;
68446;BMP280;35789;48.414;12.768;2023-06-26T19:55:00;96750.0;;;
68446;BMP280;35789;48.414;12.768;2023-06-26T20:00:00;96750.0;;;
68446;BMP280;35789;48.414;12.768;2023-06-26T20:05:01;96750.0;;;
68446;BMP280;35789;48.414;12.768;2023-06-26T20:10:00;96750.0;;;
68446;BMP280;35789;48.414;12.768;2023-06-26T20:15:00;96750.0;;;
68446;BMP280;35789;48.414;12.768;2023-06-26T20:20:00;96760.0;;;
68446;BMP280;35789;48.414;12.768;2023-06-26T20:25:00;96770.0;;;
68446;BMP280;35789;48.414;12.768;2023-06-26T20:30:00;96780.0;;;
68446;BMP280;35789;48.414;12.768;2023-06-26T20:35:00;96800.0;;;
68446;BMP280;35789;48.414;12.768;2023-06-26T20:40:01;96800.0;;;
68446;BMP280;35789;48.414;12.768;2023-06-26T20:45:01;96810.0;;;
68446;BMP280;35789;48.414;12.768;2023-06-26T20:50:01;96820.0;;;
68446;BMP280;35789;48.414;12.768;2023-06-26T20:55:01;96810.0;;;
68446;BMP280;35789;48.414;12.768;2023-06-26T21:00:01;96810.0;;;
68446;BMP280;35789;48.414;12.768;2023-06-26T21:05:01;96830.0;;;
68446;BMP280;35789;48.414;12.768;2023-06-26T21:10:01;96820.0;;;
68446;BMP280;35789;48.414;12.768;2023-06-26T21:15:00;96830.0;;;
68446;BMP280;35789;48.414;12.768;2023-06-26T21:20:00;96830.0;;;
68446;BMP280;35789;48.414;12.768;2023-06-26T21:25:00;96840.0;;;
68446;BMP280;35789;48.414;12.768;2023-06-26T21:30:00;96840.0;;;
68446;BMP280;35789;48.414;12.768;2023-06-26T21:35:00;96850.0;;;
68446;BMP280;35789;48.414;12.768;2023-06-26T21:40:00;96860.0;;;
68446;BMP280;35789;48.414;12.768;2023-06-26T21:45:00;96870.0;;;
68446;BMP280;35789;48.414;12.768;2023-06-26T21:50:00;96870.0;;;
68446;BMP280;35789;48.414;12.768;2023-06-26T21:55:00;96870.0;;;
68446;BMP280;35789;48.414;12.768;2023-06-26T22:00:00;96870.0;;;
68446;BMP280;35789;48.414;12.768;2023-06-26T22:05:00;96880.0;;;
68446;BMP280;35789;48.414;12.768;2023-06-26T22:10:00;96880.0;;;
68446;BMP280;35789;48.414;12.768;2023-06-26T22:15:00;96890.0;;;
68446;BMP280;35789;48.414;12.768;2023-06-26T22:20:00;96900.0;;;
68446;BMP280;35789;48.414;12.768;2023-06-26T22:25:00;96900.0;;;
68446;BMP280;35789;48.414;12.768;2023-06-26T22:30:00;96910.0;;;
68446;BMP280;35789;48.414;12.768;2023-06-26T22:35:00;96910.0;;;
68446;BMP280;35789;48.414;12.768;2023-06-26T22:40:00;96900.0;;;
68446;BMP280;35789;48.414;12.768;2023-06-26T22:45:02;96900.0;;;
68446;BMP280;35789;48.414;12.768;2023-06-26T22:50:01;96910.0;;;
68446;BMP280;35789;48.414;12.768;2023-06-26T22:55:01;96910.0;;;
68446;BMP280;35789;48.414;12.768;2023-06-26T23:00:00;96910.0;;;
68446;BMP280;35789;48.414;12.768;2023-06-26T23:05:00;96910.0;;;
68446;BMP280;35789;48.414;12.768;2023-06-26T23:10:00;96910.0;;;
68446;BMP280;35789;48.414;12.768;2023-06-26T23:15:01;96920.0;;;
68446;BMP280;35789;48.414;12.768;2023-06-26T23:20:00;96920.0;;;
68446;BMP280;35789;48.414;12.768;2023-06-26T23:25:00;96920.0;;;
68446;BMP280;35789;48.414;12.768;2023-06-26T23:30:00;96940.0;;;
68446;BMP280;35789;48.414;12.768;2023-06-26T23:35:00;96940.0;;;
68446;BMP280;35789;48.414;12.768;2023-06-26T23:40:00;96960.0;;;
68446;BMP280;35789;48.414;12.768;2023-06-26T23:45:00;96970.0;;;
68446;BMP280;35789;48.414;12.768;2023-06-26T23:50:00;96970.0;;;
68446;BMP280;35789;48.414;12.768;2023-06-26T23:55:00;96970.0;;;
